Galena, Nevada Weather observations

Data are for 10 minute period ending at time listed.
 Day   Time    Ave.   Ave.  Ave.  Vector   Max.   Total    Solar   
  of    of     Air    Rel.  Wind   Wind    Wind  Precip.   Rad.    
Year   Day     Temp.  Hum.  Speed  Dir.    Gust                    
2015   (PST)    F      %     mph   deg.    mph     in.     W/m2    
------------------------------------------------------------------- 
  61   11:00   39.0    54    4.0    73     11.0   10.71     637  
  61   12:00   39.0    61    3.0    50      9.0   10.71     463  
  61   13:00   40.0    49    5.0    47     13.0   10.71     340  
  61   14:00   38.0    70    6.0   136     15.0   10.71     324  
  61   15:00   40.0    52    3.0   136      9.0   10.71     382  
  61   16:00   42.0    51    2.0   170     10.0   10.71     305  
  61   17:00   39.0    54    2.0   328      8.0   10.71      97  
  61   18:00   35.0    66    7.0   283     13.0   10.71      37  
  61   19:00   34.0    69    5.0   268     10.0   10.71       0  
  61   20:00   33.0    67    4.0   316     13.0   10.71       0  
  61   21:00   32.0    65    5.0   309     11.0   10.71       0  
  61   22:00   32.0    68    4.0   286     11.0   10.71       0  
  61   23:00   32.0    71    4.0   270      9.0   10.71       0  
  62    0:00   32.0    70    2.0   327      6.0   10.71       0  
  62    1:00   32.0    76    2.0   297      5.0   10.71       0  
  62    2:00   32.0    75    6.0   359     11.0   10.71       0  
  62    3:00   32.0    77    2.0   254      9.0   10.71       0  
  62    4:00   31.0    80    4.0    23      6.0   10.71       0  
  62    5:00   31.0    75    3.0    46      7.0   10.71       0  
  62    6:00   30.0    83    4.0     5      5.0   10.71       0  
  62    7:00   30.0    85    4.0     8      7.0   10.71       1  
  62    8:00   32.0    78    7.0     4     11.0   10.71      65  
  62    9:00   32.0    83    8.0    10     14.0   10.71      96  
  62   10:00   32.0    68   10.0    15     18.0   10.71     192  

Return to Galena, Nevada graphs page.


Western Regional Climate Center,wrcc@dri.edu